sensor_id;sensor_type;location;lat;lon;timestamp;P1;durP1;ratioP1;P2;durP2;ratioP2
33279;SDS011;20403;43.114;12.434;2023-04-24T00:00:27;6.88;;;1.98;;
33279;SDS011;20403;43.114;12.434;2023-04-24T00:02:53;3.67;;;2.10;;
33279;SDS011;20403;43.114;12.434;2023-04-24T00:05:21;8.63;;;2.40;;
33279;SDS011;20403;43.114;12.434;2023-04-24T00:07:47;4.07;;;1.65;;
33279;SDS011;20403;43.114;12.434;2023-04-24T00:10:13;6.75;;;2.25;;
33279;SDS011;20403;43.114;12.434;2023-04-24T00:12:38;5.30;;;1.75;;
33279;SDS011;20403;43.114;12.434;2023-04-24T00:15:04;6.88;;;2.38;;
33279;SDS011;20403;43.114;12.434;2023-04-24T00:17:30;7.47;;;1.98;;
33279;SDS011;20403;43.114;12.434;2023-04-24T00:19:56;7.43;;;2.17;;
33279;SDS011;20403;43.114;12.434;2023-04-24T00:22:26;5.72;;;2.20;;
33279;SDS011;20403;43.114;12.434;2023-04-24T00:24:52;5.25;;;1.85;;
33279;SDS011;20403;43.114;12.434;2023-04-24T00:27:18;6.40;;;2.22;;
33279;SDS011;20403;43.114;12.434;2023-04-24T00:29:43;7.95;;;2.28;;
33279;SDS011;20403;43.114;12.434;2023-04-24T00:32:09;4.65;;;2.03;;
33279;SDS011;20403;43.114;12.434;2023-04-24T00:34:34;5.35;;;2.00;;
33279;SDS011;20403;43.114;12.434;2023-04-24T00:37:00;9.70;;;2.80;;
33279;SDS011;20403;43.114;12.434;2023-04-24T00:39:25;8.70;;;2.03;;
33279;SDS011;20403;43.114;12.434;2023-04-24T00:41:51;5.97;;;2.45;;
33279;SDS011;20403;43.114;12.434;2023-04-24T00:44:18;6.75;;;2.30;;
33279;SDS011;20403;43.114;12.434;2023-04-24T00:46:45;10.30;;;2.38;;
33279;SDS011;20403;43.114;12.434;2023-04-24T00:49:12;10.52;;;2.53;;
33279;SDS011;20403;43.114;12.434;2023-04-24T00:51:39;9.10;;;2.67;;
33279;SDS011;20403;43.114;12.434;2023-04-24T00:54:05;11.90;;;3.45;;
33279;SDS011;20403;43.114;12.434;2023-04-24T00:56:31;7.05;;;2.08;;
33279;SDS011;20403;43.114;12.434;2023-04-24T00:58:56;7.15;;;2.08;;
33279;SDS011;20403;43.114;12.434;2023-04-24T01:01:23;5.38;;;2.33;;
33279;SDS011;20403;43.114;12.434;2023-04-24T01:03:49;7.35;;;2.83;;
33279;SDS011;20403;43.114;12.434;2023-04-24T01:06:15;7.53;;;2.45;;
33279;SDS011;20403;43.114;12.434;2023-04-24T01:08:43;9.90;;;3.08;;
33279;SDS011;20403;43.114;12.434;2023-04-24T01:11:10;15.65;;;2.50;;
33279;SDS011;20403;43.114;12.434;2023-04-24T01:13:36;12.38;;;2.90;;
33279;SDS011;20403;43.114;12.434;2023-04-24T01:16:01;8.60;;;2.50;;
33279;SDS011;20403;43.114;12.434;2023-04-24T01:18:27;9.05;;;2.70;;
33279;SDS011;20403;43.114;12.434;2023-04-24T01:20:53;7.95;;;2.78;;
33279;SDS011;20403;43.114;12.434;2023-04-24T01:23:24;10.13;;;3.58;;
33279;SDS011;20403;43.114;12.434;2023-04-24T01:25:50;20.35;;;3.78;;
33279;SDS011;20403;43.114;12.434;2023-04-24T01:28:16;11.52;;;3.40;;
33279;SDS011;20403;43.114;12.434;2023-04-24T01:30:42;11.18;;;3.55;;
33279;SDS011;20403;43.114;12.434;2023-04-24T01:33:10;10.27;;;3.10;;
33279;SDS011;20403;43.114;12.434;2023-04-24T01:35:36;8.90;;;3.55;;
33279;SDS011;20403;43.114;12.434;2023-04-24T01:38:02;13.40;;;2.95;;
33279;SDS011;20403;43.114;12.434;2023-04-24T01:40:28;17.95;;;3.33;;
33279;SDS011;20403;43.114;12.434;2023-04-24T01:42:54;13.38;;;3.53;;
33279;SDS011;20403;43.114;12.434;2023-04-24T01:45:19;10.60;;;3.45;;
33279;SDS011;20403;43.114;12.434;2023-04-24T01:47:45;14.45;;;3.88;;
33279;SDS011;20403;43.114;12.434;2023-04-24T01:50:11;13.68;;;3.50;;
33279;SDS011;20403;43.114;12.434;2023-04-24T01:52:37;10.10;;;3.72;;
33279;SDS011;20403;43.114;12.434;2023-04-24T01:55:03;15.18;;;4.13;;
33279;SDS011;20403;43.114;12.434;2023-04-24T01:57:30;12.38;;;3.22;;
33279;SDS011;20403;43.114;12.434;2023-04-24T01:59:56;11.25;;;3.10;;
33279;SDS011;20403;43.114;12.434;2023-04-24T02:02:21;9.18;;;3.00;;
33279;SDS011;20403;43.114;12.434;2023-04-24T02:04:49;10.27;;;3.05;;
33279;SDS011;20403;43.114;12.434;2023-04-24T02:07:17;13.43;;;3.78;;
33279;SDS011;20403;43.114;12.434;2023-04-24T02:09:42;10.35;;;3.22;;
33279;SDS011;20403;43.114;12.434;2023-04-24T02:12:08;11.77;;;3.08;;
33279;SDS011;20403;43.114;12.434;2023-04-24T02:14:33;15.38;;;3.03;;
33279;SDS011;20403;43.114;12.434;2023-04-24T02:16:59;17.30;;;3.55;;
33279;SDS011;20403;43.114;12.434;2023-04-24T02:19:25;15.35;;;3.67;;
33279;SDS011;20403;43.114;12.434;2023-04-24T02:21:51;12.23;;;3.80;;
33279;SDS011;20403;43.114;12.434;2023-04-24T02:24:16;11.65;;;3.33;;
33279;SDS011;20403;43.114;12.434;2023-04-24T02:26:42;14.57;;;3.45;;
33279;SDS011;20403;43.114;12.434;2023-04-24T02:29:07;13.18;;;3.30;;
33279;SDS011;20403;43.114;12.434;2023-04-24T02:31:32;15.30;;;3.58;;
33279;SDS011;20403;43.114;12.434;2023-04-24T02:33:58;12.88;;;3.45;;
33279;SDS011;20403;43.114;12.434;2023-04-24T02:36:24;12.43;;;3.22;;
33279;SDS011;20403;43.114;12.434;2023-04-24T02:38:50;11.48;;;3.22;;
33279;SDS011;20403;43.114;12.434;2023-04-24T02:41:15;14.55;;;4.28;;
33279;SDS011;20403;43.114;12.434;2023-04-24T02:43:41;13.20;;;3.72;;
33279;SDS011;20403;43.114;12.434;2023-04-24T02:46:06;12.98;;;2.83;;
33279;SDS011;20403;43.114;12.434;2023-04-24T02:48:31;25.73;;;3.13;;
33279;SDS011;20403;43.114;12.434;2023-04-24T02:50:57;15.27;;;3.33;;
33279;SDS011;20403;43.114;12.434;2023-04-24T02:53:22;15.07;;;3.28;;
33279;SDS011;20403;43.114;12.434;2023-04-24T02:55:48;15.18;;;3.25;;
33279;SDS011;20403;43.114;12.434;2023-04-24T02:58:13;20.10;;;3.90;;
33279;SDS011;20403;43.114;12.434;2023-04-24T03:00:39;11.38;;;3.42;;
33279;SDS011;20403;43.114;12.434;2023-04-24T03:03:04;16.00;;;3.90;;
33279;SDS011;20403;43.114;12.434;2023-04-24T03:05:30;16.17;;;3.45;;
33279;SDS011;20403;43.114;12.434;2023-04-24T03:07:56;11.38;;;3.08;;
33279;SDS011;20403;43.114;12.434;2023-04-24T03:10:22;12.80;;;3.40;;
33279;SDS011;20403;43.114;12.434;2023-04-24T03:12:47;13.40;;;3.20;;
33279;SDS011;20403;43.114;12.434;2023-04-24T03:15:13;21.17;;;5.43;;
33279;SDS011;20403;43.114;12.434;2023-04-24T03:17:38;12.65;;;3.20;;
33279;SDS011;20403;43.114;12.434;2023-04-24T03:20:04;13.57;;;3.55;;
33279;SDS011;20403;43.114;12.434;2023-04-24T03:22:30;11.95;;;3.20;;
33279;SDS011;20403;43.114;12.434;2023-04-24T03:24:57;12.23;;;3.22;;
33279;SDS011;20403;43.114;12.434;2023-04-24T03:27:23;15.30;;;3.15;;
33279;SDS011;20403;43.114;12.434;2023-04-24T03:29:48;12.20;;;3.53;;
33279;SDS011;20403;43.114;12.434;2023-04-24T03:32:16;12.65;;;3.30;;
33279;SDS011;20403;43.114;12.434;2023-04-24T03:34:41;10.45;;;2.95;;
33279;SDS011;20403;43.114;12.434;2023-04-24T03:37:07;16.00;;;3.70;;
33279;SDS011;20403;43.114;12.434;2023-04-24T03:39:32;12.07;;;3.30;;
33279;SDS011;20403;43.114;12.434;2023-04-24T03:41:58;12.68;;;3.72;;
33279;SDS011;20403;43.114;12.434;2023-04-24T03:44:23;12.05;;;3.10;;
33279;SDS011;20403;43.114;12.434;2023-04-24T03:46:48;10.05;;;2.88;;
33279;SDS011;20403;43.114;12.434;2023-04-24T03:49:14;17.90;;;3.55;;
33279;SDS011;20403;43.114;12.434;2023-04-24T03:51:39;14.40;;;3.42;;
33279;SDS011;20403;43.114;12.434;2023-04-24T03:54:05;20.42;;;3.05;;
33279;SDS011;20403;43.114;12.434;2023-04-24T03:56:30;12.50;;;3.13;;
33279;SDS011;20403;43.114;12.434;2023-04-24T03:58:55;14.23;;;4.25;;
33279;SDS011;20403;43.114;12.434;2023-04-24T04:01:21;11.85;;;3.20;;
33279;SDS011;20403;43.114;12.434;2023-04-24T04:03:46;8.73;;;3.22;;
33279;SDS011;20403;43.114;12.434;2023-04-24T04:06:12;15.95;;;3.75;;
33279;SDS011;20403;43.114;12.434;2023-04-24T04:08:38;11.65;;;3.95;;
33279;SDS011;20403;43.114;12.434;2023-04-24T04:11:03;19.95;;;4.10;;
33279;SDS011;20403;43.114;12.434;2023-04-24T04:13:28;20.85;;;3.60;;
33279;SDS011;20403;43.114;12.434;2023-04-24T04:15:54;11.32;;;3.40;;
33279;SDS011;20403;43.114;12.434;2023-04-24T04:18:19;12.40;;;3.47;;
33279;SDS011;20403;43.114;12.434;2023-04-24T04:20:45;16.60;;;3.70;;
33279;SDS011;20403;43.114;12.434;2023-04-24T04:23:10;10.00;;;2.72;;
33279;SDS011;20403;43.114;12.434;2023-04-24T04:25:36;12.30;;;3.03;;
33279;SDS011;20403;43.114;12.434;2023-04-24T04:28:01;16.08;;;3.45;;
33279;SDS011;20403;43.114;12.434;2023-04-24T04:30:27;12.32;;;3.30;;
33279;SDS011;20403;43.114;12.434;2023-04-24T04:32:54;9.40;;;3.17;;
33279;SDS011;20403;43.114;12.434;2023-04-24T04:35:20;13.38;;;3.53;;
33279;SDS011;20403;43.114;12.434;2023-04-24T04:37:45;12.02;;;3.80;;
33279;SDS011;20403;43.114;12.434;2023-04-24T04:40:10;13.15;;;3.13;;
33279;SDS011;20403;43.114;12.434;2023-04-24T04:42:36;19.60;;;3.78;;
33279;SDS011;20403;43.114;12.434;2023-04-24T04:45:05;14.20;;;3.30;;
33279;SDS011;20403;43.114;12.434;2023-04-24T04:47:34;16.65;;;3.90;;
33279;SDS011;20403;43.114;12.434;2023-04-24T04:49:59;13.52;;;4.20;;
33279;SDS011;20403;43.114;12.434;2023-04-24T04:52:25;13.35;;;3.35;;
33279;SDS011;20403;43.114;12.434;2023-04-24T04:54:51;16.27;;;3.47;;
33279;SDS011;20403;43.114;12.434;2023-04-24T04:57:17;12.95;;;3.30;;
33279;SDS011;20403;43.114;12.434;2023-04-24T04:59:42;9.18;;;3.30;;
33279;SDS011;20403;43.114;12.434;2023-04-24T05:02:08;16.80;;;3.63;;
33279;SDS011;20403;43.114;12.434;2023-04-24T05:04:33;17.17;;;3.67;;
33279;SDS011;20403;43.114;12.434;2023-04-24T05:06:59;15.45;;;3.80;;
33279;SDS011;20403;43.114;12.434;2023-04-24T05:09:24;15.63;;;3.60;;
33279;SDS011;20403;43.114;12.434;2023-04-24T05:11:52;18.25;;;4.07;;
33279;SDS011;20403;43.114;12.434;2023-04-24T05:14:17;18.40;;;3.85;;
33279;SDS011;20403;43.114;12.434;2023-04-24T05:16:44;23.63;;;3.78;;
33279;SDS011;20403;43.114;12.434;2023-04-24T05:19:09;17.15;;;3.78;;
33279;SDS011;20403;43.114;12.434;2023-04-24T05:21:36;12.75;;;3.55;;
33279;SDS011;20403;43.114;12.434;2023-04-24T05:24:02;12.57;;;3.88;;
33279;SDS011;20403;43.114;12.434;2023-04-24T05:26:27;16.63;;;4.07;;
33279;SDS011;20403;43.114;12.434;2023-04-24T05:28:53;13.52;;;3.67;;
33279;SDS011;20403;43.114;12.434;2023-04-24T05:31:18;13.75;;;3.63;;
33279;SDS011;20403;43.114;12.434;2023-04-24T05:33:44;16.30;;;3.95;;
33279;SDS011;20403;43.114;12.434;2023-04-24T05:36:09;21.60;;;3.53;;
33279;SDS011;20403;43.114;12.434;2023-04-24T05:38:35;12.73;;;3.95;;
33279;SDS011;20403;43.114;12.434;2023-04-24T05:41:00;12.40;;;3.53;;
33279;SDS011;20403;43.114;12.434;2023-04-24T05:43:25;13.23;;;4.28;;
33279;SDS011;20403;43.114;12.434;2023-04-24T05:45:51;13.38;;;4.10;;
33279;SDS011;20403;43.114;12.434;2023-04-24T05:48:18;15.23;;;4.10;;
33279;SDS011;20403;43.114;12.434;2023-04-24T05:50:44;15.65;;;4.80;;
33279;SDS011;20403;43.114;12.434;2023-04-24T05:53:09;13.98;;;3.97;;
33279;SDS011;20403;43.114;12.434;2023-04-24T05:55:36;15.93;;;4.28;;
33279;SDS011;20403;43.114;12.434;2023-04-24T05:58:01;9.82;;;3.75;;
33279;SDS011;20403;43.114;12.434;2023-04-24T06:00:27;14.43;;;4.68;;
33279;SDS011;20403;43.114;12.434;2023-04-24T06:02:53;16.92;;;5.13;;
33279;SDS011;20403;43.114;12.434;2023-04-24T06:05:20;22.38;;;5.65;;
33279;SDS011;20403;43.114;12.434;2023-04-24T06:07:45;17.02;;;5.25;;
33279;SDS011;20403;43.114;12.434;2023-04-24T06:10:11;18.42;;;5.38;;
33279;SDS011;20403;43.114;12.434;2023-04-24T06:12:36;13.65;;;4.75;;
33279;SDS011;20403;43.114;12.434;2023-04-24T06:15:02;13.80;;;5.22;;
33279;SDS011;20403;43.114;12.434;2023-04-24T06:17:28;17.60;;;4.60;;
33279;SDS011;20403;43.114;12.434;2023-04-24T06:19:55;15.10;;;5.25;;
33279;SDS011;20403;43.114;12.434;2023-04-24T06:22:21;14.15;;;4.38;;
33279;SDS011;20403;43.114;12.434;2023-04-24T06:24:46;18.92;;;4.72;;
33279;SDS011;20403;43.114;12.434;2023-04-24T06:27:13;12.80;;;4.20;;
33279;SDS011;20403;43.114;12.434;2023-04-24T06:29:38;9.68;;;4.25;;
33279;SDS011;20403;43.114;12.434;2023-04-24T06:32:04;9.35;;;4.20;;
33279;SDS011;20403;43.114;12.434;2023-04-24T06:34:30;11.38;;;3.40;;
33279;SDS011;20403;43.114;12.434;2023-04-24T06:36:56;10.35;;;3.80;;
33279;SDS011;20403;43.114;12.434;2023-04-24T06:39:21;10.05;;;4.10;;
33279;SDS011;20403;43.114;12.434;2023-04-24T06:41:47;12.15;;;4.18;;
33279;SDS011;20403;43.114;12.434;2023-04-24T06:44:12;9.52;;;3.42;;
33279;SDS011;20403;43.114;12.434;2023-04-24T06:46:39;9.05;;;3.00;;
33279;SDS011;20403;43.114;12.434;2023-04-24T06:49:05;7.57;;;2.50;;
33279;SDS011;20403;43.114;12.434;2023-04-24T06:51:31;9.85;;;3.08;;
33279;SDS011;20403;43.114;12.434;2023-04-24T06:53:58;8.30;;;2.90;;
33279;SDS011;20403;43.114;12.434;2023-04-24T06:56:24;12.95;;;3.03;;
33279;SDS011;20403;43.114;12.434;2023-04-24T06:58:50;7.53;;;2.70;;
33279;SDS011;20403;43.114;12.434;2023-04-24T07:01:16;7.38;;;2.80;;
33279;SDS011;20403;43.114;12.434;2023-04-24T07:03:42;5.82;;;2.17;;
33279;SDS011;20403;43.114;12.434;2023-04-24T07:06:07;9.80;;;2.60;;
33279;SDS011;20403;43.114;12.434;2023-04-24T07:08:34;8.10;;;2.42;;
33279;SDS011;20403;43.114;12.434;2023-04-24T07:11:00;7.15;;;2.20;;
33279;SDS011;20403;43.114;12.434;2023-04-24T07:13:26;8.25;;;2.55;;
33279;SDS011;20403;43.114;12.434;2023-04-24T07:15:53;7.90;;;2.70;;
33279;SDS011;20403;43.114;12.434;2023-04-24T07:18:20;6.10;;;2.63;;
33279;SDS011;20403;43.114;12.434;2023-04-24T07:20:45;5.80;;;2.42;;
33279;SDS011;20403;43.114;12.434;2023-04-24T07:23:11;3.92;;;2.30;;
33279;SDS011;20403;43.114;12.434;2023-04-24T07:25:36;7.80;;;2.55;;
33279;SDS011;20403;43.114;12.434;2023-04-24T07:28:03;10.63;;;2.35;;
33279;SDS011;20403;43.114;12.434;2023-04-24T07:30:29;8.23;;;2.40;;
33279;SDS011;20403;43.114;12.434;2023-04-24T07:32:55;18.23;;;3.33;;
33279;SDS011;20403;43.114;12.434;2023-04-24T07:35:21;4.97;;;2.00;;
33279;SDS011;20403;43.114;12.434;2023-04-24T07:37:46;7.68;;;2.33;;
33279;SDS011;20403;43.114;12.434;2023-04-24T07:40:12;7.90;;;1.90;;
33279;SDS011;20403;43.114;12.434;2023-04-24T07:42:38;7.20;;;1.83;;
33279;SDS011;20403;43.114;12.434;2023-04-24T07:45:04;5.45;;;2.13;;
33279;SDS011;20403;43.114;12.434;2023-04-24T07:47:30;5.20;;;1.50;;
33279;SDS011;20403;43.114;12.434;2023-04-24T07:49:56;2.83;;;1.40;;
33279;SDS011;20403;43.114;12.434;2023-04-24T07:52:22;5.00;;;1.75;;
33279;SDS011;20403;43.114;12.434;2023-04-24T07:54:47;5.88;;;1.70;;
33279;SDS011;20403;43.114;12.434;2023-04-24T07:57:14;10.55;;;2.10;;
33279;SDS011;20403;43.114;12.434;2023-04-24T07:59:40;8.13;;;1.90;;
33279;SDS011;20403;43.114;12.434;2023-04-24T08:02:05;4.38;;;2.05;;
33279;SDS011;20403;43.114;12.434;2023-04-24T08:04:31;6.15;;;1.80;;
33279;SDS011;20403;43.114;12.434;2023-04-24T08:06:56;6.60;;;1.92;;
33279;SDS011;20403;43.114;12.434;2023-04-24T08:09:22;8.02;;;2.53;;
33279;SDS011;20403;43.114;12.434;2023-04-24T08:11:47;7.35;;;2.63;;
33279;SDS011;20403;43.114;12.434;2023-04-24T08:14:13;6.85;;;2.53;;
33279;SDS011;20403;43.114;12.434;2023-04-24T08:16:39;9.57;;;2.63;;
33279;SDS011;20403;43.114;12.434;2023-04-24T08:19:05;10.63;;;3.13;;
33279;SDS011;20403;43.114;12.434;2023-04-24T08:21:31;10.20;;;3.20;;
33279;SDS011;20403;43.114;12.434;2023-04-24T08:23:57;12.05;;;3.80;;
33279;SDS011;20403;43.114;12.434;2023-04-24T08:26:22;12.30;;;3.95;;
33279;SDS011;20403;43.114;12.434;2023-04-24T08:28:48;11.50;;;3.90;;
33279;SDS011;20403;43.114;12.434;2023-04-24T08:31:13;13.23;;;3.67;;
33279;SDS011;20403;43.114;12.434;2023-04-24T08:33:39;13.40;;;3.58;;
33279;SDS011;20403;43.114;12.434;2023-04-24T08:36:06;11.13;;;3.75;;
33279;SDS011;20403;43.114;12.434;2023-04-24T08:38:32;14.80;;;4.13;;
33279;SDS011;20403;43.114;12.434;2023-04-24T08:40:59;10.32;;;3.90;;
33279;SDS011;20403;43.114;12.434;2023-04-24T08:43:26;11.68;;;4.32;;
33279;SDS011;20403;43.114;12.434;2023-04-24T08:45:52;12.75;;;4.07;;
33279;SDS011;20403;43.114;12.434;2023-04-24T08:48:18;14.82;;;4.45;;
33279;SDS011;20403;43.114;12.434;2023-04-24T08:50:45;12.57;;;3.92;;
33279;SDS011;20403;43.114;12.434;2023-04-24T08:53:10;12.73;;;3.70;;
33279;SDS011;20403;43.114;12.434;2023-04-24T08:55:36;10.90;;;3.55;;
33279;SDS011;20403;43.114;12.434;2023-04-24T08:58:03;11.98;;;3.67;;
33279;SDS011;20403;43.114;12.434;2023-04-24T09:00:29;10.75;;;3.83;;
33279;SDS011;20403;43.114;12.434;2023-04-24T09:02:55;15.30;;;4.78;;
33279;SDS011;20403;43.114;12.434;2023-04-24T09:05:21;11.70;;;3.90;;
33279;SDS011;20403;43.114;12.434;2023-04-24T09:07:55;12.70;;;3.88;;
33279;SDS011;20403;43.114;12.434;2023-04-24T09:10:22;13.30;;;4.20;;
33279;SDS011;20403;43.114;12.434;2023-04-24T09:12:50;10.32;;;3.58;;
33279;SDS011;20403;43.114;12.434;2023-04-24T09:15:16;17.85;;;4.57;;
33279;SDS011;20403;43.114;12.434;2023-04-24T09:17:42;10.68;;;3.47;;
33279;SDS011;20403;43.114;12.434;2023-04-24T09:20:08;14.30;;;4.43;;
33279;SDS011;20403;43.114;12.434;2023-04-24T09:22:33;13.98;;;3.97;;
33279;SDS011;20403;43.114;12.434;2023-04-24T09:25:00;11.85;;;3.90;;
33279;SDS011;20403;43.114;12.434;2023-04-24T09:27:28;11.43;;;3.05;;
33279;SDS011;20403;43.114;12.434;2023-04-24T09:29:54;10.82;;;3.70;;
33279;SDS011;20403;43.114;12.434;2023-04-24T09:32:21;10.00;;;4.07;;
33279;SDS011;20403;43.114;12.434;2023-04-24T09:34:47;16.00;;;3.85;;
33279;SDS011;20403;43.114;12.434;2023-04-24T09:37:29;9.90;;;3.53;;
33279;SDS011;20403;43.114;12.434;2023-04-24T09:42:44;13.60;;;3.72;;
33279;SDS011;20403;43.114;12.434;2023-04-24T09:45:36;11.82;;;3.75;;
33279;SDS011;20403;43.114;12.434;2023-04-24T09:48:02;10.82;;;3.08;;
33279;SDS011;20403;43.114;12.434;2023-04-24T09:50:29;11.43;;;3.38;;
33279;SDS011;20403;43.114;12.434;2023-04-24T09:52:59;6.63;;;3.35;;
33279;SDS011;20403;43.114;12.434;2023-04-24T09:55:27;13.52;;;3.22;;
33279;SDS011;20403;43.114;12.434;2023-04-24T10:00:26;10.13;;;3.00;;
33279;SDS011;20403;43.114;12.434;2023-04-24T10:02:59;11.10;;;3.47;;
33279;SDS011;20403;43.114;12.434;2023-04-24T10:05:27;10.07;;;3.35;;
33279;SDS011;20403;43.114;12.434;2023-04-24T10:08:03;7.38;;;2.75;;
33279;SDS011;20403;43.114;12.434;2023-04-24T10:10:34;10.15;;;3.15;;
33279;SDS011;20403;43.114;12.434;2023-04-24T10:13:03;6.97;;;2.80;;
33279;SDS011;20403;43.114;12.434;2023-04-24T10:15:29;10.20;;;3.03;;
33279;SDS011;20403;43.114;12.434;2023-04-24T10:17:55;8.30;;;3.17;;
33279;SDS011;20403;43.114;12.434;2023-04-24T10:20:24;8.70;;;2.45;;
33279;SDS011;20403;43.114;12.434;2023-04-24T10:22:52;12.38;;;2.97;;
33279;SDS011;20403;43.114;12.434;2023-04-24T10:25:28;10.45;;;2.95;;
33279;SDS011;20403;43.114;12.434;2023-04-24T10:27:56;6.10;;;2.20;;
33279;SDS011;20403;43.114;12.434;2023-04-24T11:57:24;3.25;;;1.00;;
33279;SDS011;20403;43.114;12.434;2023-04-24T11:59:53;7.85;;;1.58;;
33279;SDS011;20403;43.114;12.434;2023-04-24T12:02:22;5.63;;;1.10;;
33279;SDS011;20403;43.114;12.434;2023-04-24T12:04:49;2.92;;;0.85;;
33279;SDS011;20403;43.114;12.434;2023-04-24T12:07:14;4.05;;;0.85;;
33279;SDS011;20403;43.114;12.434;2023-04-24T12:12:11;8.77;;;1.47;;
33279;SDS011;20403;43.114;12.434;2023-04-24T12:17:17;4.85;;;1.02;;
33279;SDS011;20403;43.114;12.434;2023-04-24T12:20:05;4.00;;;0.98;;
33279;SDS011;20403;43.114;12.434;2023-04-24T12:25:21;4.50;;;1.42;;
33279;SDS011;20403;43.114;12.434;2023-04-24T12:27:55;4.63;;;1.02;;
33279;SDS011;20403;43.114;12.434;2023-04-24T12:30:43;3.58;;;1.00;;
33279;SDS011;20403;43.114;12.434;2023-04-24T12:33:17;6.18;;;1.60;;
33279;SDS011;20403;43.114;12.434;2023-04-24T12:35:47;4.18;;;1.10;;
33279;SDS011;20403;43.114;12.434;2023-04-24T12:38:13;9.43;;;1.33;;
33279;SDS011;20403;43.114;12.434;2023-04-24T12:40:41;6.90;;;1.35;;
33279;SDS011;20403;43.114;12.434;2023-04-24T12:43:19;2.28;;;0.82;;
33279;SDS011;20403;43.114;12.434;2023-04-24T12:45:45;8.20;;;1.40;;
33279;SDS011;20403;43.114;12.434;2023-04-24T12:48:12;5.35;;;1.13;;
33279;SDS011;20403;43.114;12.434;2023-04-24T12:50:39;4.90;;;1.30;;
33279;SDS011;20403;43.114;12.434;2023-04-24T12:53:05;5.25;;;1.50;;
33279;SDS011;20403;43.114;12.434;2023-04-24T12:55:31;7.03;;;1.63;;
33279;SDS011;20403;43.114;12.434;2023-04-24T12:57:56;4.28;;;1.10;;
33279;SDS011;20403;43.114;12.434;2023-04-24T13:00:23;5.80;;;1.70;;
33279;SDS011;20403;43.114;12.434;2023-04-24T13:02:48;8.52;;;2.20;;
33279;SDS011;20403;43.114;12.434;2023-04-24T13:05:14;6.72;;;1.70;;
33279;SDS011;20403;43.114;12.434;2023-04-24T13:07:40;5.13;;;1.30;;
33279;SDS011;20403;43.114;12.434;2023-04-24T13:10:06;9.15;;;1.60;;
33279;SDS011;20403;43.114;12.434;2023-04-24T13:12:32;7.28;;;1.60;;
33279;SDS011;20403;43.114;12.434;2023-04-24T13:14:58;6.85;;;1.33;;
33279;SDS011;20403;43.114;12.434;2023-04-24T13:17:23;8.15;;;1.75;;
33279;SDS011;20403;43.114;12.434;2023-04-24T13:19:49;6.32;;;1.58;;
33279;SDS011;20403;43.114;12.434;2023-04-24T13:22:16;7.28;;;1.98;;
33279;SDS011;20403;43.114;12.434;2023-04-24T13:24:43;5.15;;;1.40;;
33279;SDS011;20403;43.114;12.434;2023-04-24T13:27:09;6.70;;;1.92;;
33279;SDS011;20403;43.114;12.434;2023-04-24T13:29:35;6.97;;;1.30;;
33279;SDS011;20403;43.114;12.434;2023-04-24T13:32:01;9.02;;;1.65;;
33279;SDS011;20403;43.114;12.434;2023-04-24T13:34:27;14.90;;;2.05;;
33279;SDS011;20403;43.114;12.434;2023-04-24T13:36:53;6.75;;;1.35;;
33279;SDS011;20403;43.114;12.434;2023-04-24T13:39:20;8.75;;;1.77;;
33279;SDS011;20403;43.114;12.434;2023-04-24T13:41:45;10.43;;;1.75;;
33279;SDS011;20403;43.114;12.434;2023-04-24T13:44:13;5.60;;;1.35;;
33279;SDS011;20403;43.114;12.434;2023-04-24T13:46:40;6.88;;;1.40;;
33279;SDS011;20403;43.114;12.434;2023-04-24T13:49:06;12.40;;;1.58;;
33279;SDS011;20403;43.114;12.434;2023-04-24T13:51:32;9.00;;;1.85;;
33279;SDS011;20403;43.114;12.434;2023-04-24T13:53:57;6.43;;;1.35;;
33279;SDS011;20403;43.114;12.434;2023-04-24T13:56:23;9.38;;;2.17;;
33279;SDS011;20403;43.114;12.434;2023-04-24T13:58:48;4.85;;;1.33;;
33279;SDS011;20403;43.114;12.434;2023-04-24T14:01:14;8.50;;;1.75;;
33279;SDS011;20403;43.114;12.434;2023-04-24T14:03:40;9.60;;;1.80;;
33279;SDS011;20403;43.114;12.434;2023-04-24T14:06:06;12.05;;;1.48;;
33279;SDS011;20403;43.114;12.434;2023-04-24T14:08:32;8.82;;;1.88;;
33279;SDS011;20403;43.114;12.434;2023-04-24T14:10:57;10.55;;;1.88;;
33279;SDS011;20403;43.114;12.434;2023-04-24T14:13:23;12.85;;;2.38;;
33279;SDS011;20403;43.114;12.434;2023-04-24T14:15:49;10.60;;;1.92;;
33279;SDS011;20403;43.114;12.434;2023-04-24T14:18:14;13.30;;;2.00;;
33279;SDS011;20403;43.114;12.434;2023-04-24T14:20:40;8.05;;;2.03;;
33279;SDS011;20403;43.114;12.434;2023-04-24T14:23:05;7.60;;;1.90;;
33279;SDS011;20403;43.114;12.434;2023-04-24T14:25:30;9.73;;;2.58;;
33279;SDS011;20403;43.114;12.434;2023-04-24T14:27:56;9.27;;;2.35;;
33279;SDS011;20403;43.114;12.434;2023-04-24T14:30:21;7.53;;;1.58;;
33279;SDS011;20403;43.114;12.434;2023-04-24T14:32:47;8.32;;;1.70;;
33279;SDS011;20403;43.114;12.434;2023-04-24T14:35:13;10.25;;;1.85;;
33279;SDS011;20403;43.114;12.434;2023-04-24T14:37:39;7.15;;;1.85;;
33279;SDS011;20403;43.114;12.434;2023-04-24T14:40:06;8.32;;;1.98;;
33279;SDS011;20403;43.114;12.434;2023-04-24T14:42:33;15.38;;;1.95;;
33279;SDS011;20403;43.114;12.434;2023-04-24T14:44:58;9.90;;;2.00;;
33279;SDS011;20403;43.114;12.434;2023-04-24T14:47:24;9.93;;;1.95;;
33279;SDS011;20403;43.114;12.434;2023-04-24T14:49:49;10.15;;;2.55;;
33279;SDS011;20403;43.114;12.434;2023-04-24T14:52:15;5.93;;;1.65;;
33279;SDS011;20403;43.114;12.434;2023-04-24T14:54:41;10.50;;;2.40;;
33279;SDS011;20403;43.114;12.434;2023-04-24T14:57:07;7.68;;;2.10;;
33279;SDS011;20403;43.114;12.434;2023-04-24T14:59:33;11.05;;;2.20;;
33279;SDS011;20403;43.114;12.434;2023-04-24T15:01:58;7.90;;;1.75;;
33279;SDS011;20403;43.114;12.434;2023-04-24T15:04:24;8.82;;;2.20;;
33279;SDS011;20403;43.114;12.434;2023-04-24T15:06:53;17.27;;;2.33;;
33279;SDS011;20403;43.114;12.434;2023-04-24T15:09:22;9.00;;;2.00;;
33279;SDS011;20403;43.114;12.434;2023-04-24T15:11:49;9.35;;;1.92;;
33279;SDS011;20403;43.114;12.434;2023-04-24T15:14:16;16.35;;;2.85;;
33279;SDS011;20403;43.114;12.434;2023-04-24T15:16:42;7.45;;;2.03;;
33279;SDS011;20403;43.114;12.434;2023-04-24T15:19:07;8.48;;;2.22;;
33279;SDS011;20403;43.114;12.434;2023-04-24T15:21:33;10.88;;;2.17;;
33279;SDS011;20403;43.114;12.434;2023-04-24T15:24:00;8.85;;;2.47;;
33279;SDS011;20403;43.114;12.434;2023-04-24T15:26:25;11.43;;;2.10;;
33279;SDS011;20403;43.114;12.434;2023-04-24T15:28:51;8.23;;;2.10;;
33279;SDS011;20403;43.114;12.434;2023-04-24T15:31:17;10.05;;;1.80;;
33279;SDS011;20403;43.114;12.434;2023-04-24T15:33:43;9.30;;;2.65;;
33279;SDS011;20403;43.114;12.434;2023-04-24T15:36:09;8.20;;;2.10;;
33279;SDS011;20403;43.114;12.434;2023-04-24T15:38:35;13.05;;;2.42;;
33279;SDS011;20403;43.114;12.434;2023-04-24T15:41:00;9.73;;;1.98;;
33279;SDS011;20403;43.114;12.434;2023-04-24T15:43:26;8.52;;;2.35;;
33279;SDS011;20403;43.114;12.434;2023-04-24T15:45:51;9.05;;;2.20;;
33279;SDS011;20403;43.114;12.434;2023-04-24T15:48:17;10.48;;;1.80;;
33279;SDS011;20403;43.114;12.434;2023-04-24T15:50:43;7.55;;;2.08;;
33279;SDS011;20403;43.114;12.434;2023-04-24T15:53:09;7.97;;;1.95;;
33279;SDS011;20403;43.114;12.434;2023-04-24T15:55:34;9.10;;;1.58;;
33279;SDS011;20403;43.114;12.434;2023-04-24T15:58:01;6.00;;;1.75;;
33279;SDS011;20403;43.114;12.434;2023-04-24T16:00:26;8.02;;;1.90;;
33279;SDS011;20403;43.114;12.434;2023-04-24T16:02:58;12.30;;;1.90;;